sensor_id;sensor_type;location;lat;lon;timestamp;P1;durP1;ratioP1;P2;durP2;ratioP2
58137;SDS011;43955;47.362;18.930;2024-03-06T00:00:33;29.33;;;13.65;;
58137;SDS011;43955;47.362;18.930;2024-03-06T00:03:01;28.00;;;13.48;;
58137;SDS011;43955;47.362;18.930;2024-03-06T00:05:28;29.58;;;14.13;;
58137;SDS011;43955;47.362;18.930;2024-03-06T00:07:55;32.83;;;15.32;;
58137;SDS011;43955;47.362;18.930;2024-03-06T00:10:22;31.02;;;14.32;;
58137;SDS011;43955;47.362;18.930;2024-03-06T00:12:49;36.22;;;14.55;;
58137;SDS011;43955;47.362;18.930;2024-03-06T00:15:17;29.87;;;14.68;;
58137;SDS011;43955;47.362;18.930;2024-03-06T00:17:44;38.20;;;15.35;;
58137;SDS011;43955;47.362;18.930;2024-03-06T00:20:12;31.60;;;15.48;;
58137;SDS011;43955;47.362;18.930;2024-03-06T00:22:40;33.15;;;15.23;;
58137;SDS011;43955;47.362;18.930;2024-03-06T00:25:07;31.45;;;15.50;;
58137;SDS011;43955;47.362;18.930;2024-03-06T00:27:35;31.15;;;15.95;;
58137;SDS011;43955;47.362;18.930;2024-03-06T00:30:02;34.20;;;15.18;;
58137;SDS011;43955;47.362;18.930;2024-03-06T00:32:31;41.75;;;16.10;;
58137;SDS011;43955;47.362;18.930;2024-03-06T00:34:58;41.10;;;17.00;;
58137;SDS011;43955;47.362;18.930;2024-03-06T00:37:26;42.17;;;18.98;;
58137;SDS011;43955;47.362;18.930;2024-03-06T00:39:53;46.67;;;17.85;;
58137;SDS011;43955;47.362;18.930;2024-03-06T00:42:20;49.35;;;18.85;;
58137;SDS011;43955;47.362;18.930;2024-03-06T00:44:48;76.95;;;24.37;;
58137;SDS011;43955;47.362;18.930;2024-03-06T00:47:16;51.67;;;19.30;;
58137;SDS011;43955;47.362;18.930;2024-03-06T00:49:43;49.63;;;17.58;;
58137;SDS011;43955;47.362;18.930;2024-03-06T00:52:10;43.10;;;17.67;;
58137;SDS011;43955;47.362;18.930;2024-03-06T00:54:38;42.35;;;16.58;;
58137;SDS011;43955;47.362;18.930;2024-03-06T00:57:05;53.53;;;18.85;;
58137;SDS011;43955;47.362;18.930;2024-03-06T00:59:33;43.20;;;16.70;;
58137;SDS011;43955;47.362;18.930;2024-03-06T01:02:00;91.65;;;26.70;;
58137;SDS011;43955;47.362;18.930;2024-03-06T01:04:28;86.20;;;27.48;;
58137;SDS011;43955;47.362;18.930;2024-03-06T01:06:55;55.97;;;20.00;;
58137;SDS011;43955;47.362;18.930;2024-03-06T01:09:24;47.10;;;20.62;;
58137;SDS011;43955;47.362;18.930;2024-03-06T01:11:51;35.75;;;16.98;;
58137;SDS011;43955;47.362;18.930;2024-03-06T01:14:19;52.75;;;19.25;;
58137;SDS011;43955;47.362;18.930;2024-03-06T01:16:46;76.93;;;29.17;;
58137;SDS011;43955;47.362;18.930;2024-03-06T01:19:14;112.25;;;32.20;;
58137;SDS011;43955;47.362;18.930;2024-03-06T01:21:41;101.87;;;30.92;;
58137;SDS011;43955;47.362;18.930;2024-03-06T01:24:09;126.20;;;34.38;;
58137;SDS011;43955;47.362;18.930;2024-03-06T01:26:36;124.78;;;31.42;;
58137;SDS011;43955;47.362;18.930;2024-03-06T01:29:04;128.75;;;35.22;;
58137;SDS011;43955;47.362;18.930;2024-03-06T01:31:32;80.12;;;25.62;;
58137;SDS011;43955;47.362;18.930;2024-03-06T01:33:59;68.40;;;28.62;;
58137;SDS011;43955;47.362;18.930;2024-03-06T01:36:27;59.72;;;21.67;;
58137;SDS011;43955;47.362;18.930;2024-03-06T01:38:55;66.60;;;22.08;;
58137;SDS011;43955;47.362;18.930;2024-03-06T01:41:22;61.90;;;21.83;;
58137;SDS011;43955;47.362;18.930;2024-03-06T01:43:49;48.00;;;20.65;;
58137;SDS011;43955;47.362;18.930;2024-03-06T01:46:17;49.13;;;19.20;;
58137;SDS011;43955;47.362;18.930;2024-03-06T01:48:45;69.85;;;23.95;;
58137;SDS011;43955;47.362;18.930;2024-03-06T01:51:12;52.15;;;21.58;;
58137;SDS011;43955;47.362;18.930;2024-03-06T01:53:41;45.88;;;19.87;;
58137;SDS011;43955;47.362;18.930;2024-03-06T01:56:08;37.38;;;15.23;;
58137;SDS011;43955;47.362;18.930;2024-03-06T01:58:39;54.28;;;19.70;;
58137;SDS011;43955;47.362;18.930;2024-03-06T02:01:07;50.88;;;18.52;;
58137;SDS011;43955;47.362;18.930;2024-03-06T02:03:34;59.40;;;22.48;;
58137;SDS011;43955;47.362;18.930;2024-03-06T02:06:02;41.05;;;17.10;;
58137;SDS011;43955;47.362;18.930;2024-03-06T02:08:30;44.42;;;18.25;;
58137;SDS011;43955;47.362;18.930;2024-03-06T02:10:58;34.90;;;15.27;;
58137;SDS011;43955;47.362;18.930;2024-03-06T02:13:29;28.67;;;14.43;;
58137;SDS011;43955;47.362;18.930;2024-03-06T02:15:57;30.73;;;15.15;;
58137;SDS011;43955;47.362;18.930;2024-03-06T02:18:27;31.42;;;13.65;;
58137;SDS011;43955;47.362;18.930;2024-03-06T02:20:54;40.00;;;17.62;;
58137;SDS011;43955;47.362;18.930;2024-03-06T02:23:22;36.88;;;16.00;;
58137;SDS011;43955;47.362;18.930;2024-03-06T02:25:50;31.87;;;15.45;;
58137;SDS011;43955;47.362;18.930;2024-03-06T02:28:17;34.53;;;15.45;;
58137;SDS011;43955;47.362;18.930;2024-03-06T02:30:48;42.22;;;19.12;;
58137;SDS011;43955;47.362;18.930;2024-03-06T02:33:17;43.28;;;21.45;;
58137;SDS011;43955;47.362;18.930;2024-03-06T02:35:46;43.03;;;18.80;;
58137;SDS011;43955;47.362;18.930;2024-03-06T02:38:13;34.63;;;16.15;;
58137;SDS011;43955;47.362;18.930;2024-03-06T02:40:42;31.70;;;14.23;;
58137;SDS011;43955;47.362;18.930;2024-03-06T02:43:11;34.03;;;13.50;;
58137;SDS011;43955;47.362;18.930;2024-03-06T02:45:38;35.70;;;16.92;;
58137;SDS011;43955;47.362;18.930;2024-03-06T02:48:05;37.53;;;16.35;;
58137;SDS011;43955;47.362;18.930;2024-03-06T02:50:33;30.20;;;14.93;;
58137;SDS011;43955;47.362;18.930;2024-03-06T02:53:00;31.67;;;15.05;;
58137;SDS011;43955;47.362;18.930;2024-03-06T02:55:30;28.70;;;13.70;;
58137;SDS011;43955;47.362;18.930;2024-03-06T02:58:01;35.90;;;14.32;;
58137;SDS011;43955;47.362;18.930;2024-03-06T03:00:32;28.77;;;13.25;;
58137;SDS011;43955;47.362;18.930;2024-03-06T03:02:59;27.90;;;12.32;;
58137;SDS011;43955;47.362;18.930;2024-03-06T03:05:26;30.52;;;14.20;;
58137;SDS011;43955;47.362;18.930;2024-03-06T03:07:53;38.30;;;13.98;;
58137;SDS011;43955;47.362;18.930;2024-03-06T03:10:21;30.10;;;14.15;;
58137;SDS011;43955;47.362;18.930;2024-03-06T03:12:51;37.97;;;15.60;;
58137;SDS011;43955;47.362;18.930;2024-03-06T03:15:18;31.58;;;15.25;;
58137;SDS011;43955;47.362;18.930;2024-03-06T03:17:45;34.53;;;15.98;;
58137;SDS011;43955;47.362;18.930;2024-03-06T03:20:13;31.73;;;14.87;;
58137;SDS011;43955;47.362;18.930;2024-03-06T03:22:40;36.40;;;16.45;;
58137;SDS011;43955;47.362;18.930;2024-03-06T03:25:09;39.17;;;16.37;;
58137;SDS011;43955;47.362;18.930;2024-03-06T03:27:38;45.83;;;17.73;;
58137;SDS011;43955;47.362;18.930;2024-03-06T03:30:09;37.20;;;16.90;;
58137;SDS011;43955;47.362;18.930;2024-03-06T03:32:39;43.47;;;18.48;;
58137;SDS011;43955;47.362;18.930;2024-03-06T03:35:06;38.85;;;15.88;;
58137;SDS011;43955;47.362;18.930;2024-03-06T03:37:34;38.58;;;17.58;;
58137;SDS011;43955;47.362;18.930;2024-03-06T03:40:01;39.30;;;19.20;;
58137;SDS011;43955;47.362;18.930;2024-03-06T03:42:30;42.80;;;17.58;;
58137;SDS011;43955;47.362;18.930;2024-03-06T03:44:57;47.90;;;19.50;;
58137;SDS011;43955;47.362;18.930;2024-03-06T03:47:26;40.85;;;17.60;;
58137;SDS011;43955;47.362;18.930;2024-03-06T03:49:53;38.28;;;18.15;;
58137;SDS011;43955;47.362;18.930;2024-03-06T03:52:35;40.17;;;18.45;;
58137;SDS011;43955;47.362;18.930;2024-03-06T03:55:03;40.78;;;17.35;;
58137;SDS011;43955;47.362;18.930;2024-03-06T03:57:31;41.83;;;18.37;;
58137;SDS011;43955;47.362;18.930;2024-03-06T03:59:59;43.00;;;18.20;;
58137;SDS011;43955;47.362;18.930;2024-03-06T04:02:26;45.90;;;18.50;;
58137;SDS011;43955;47.362;18.930;2024-03-06T04:04:56;45.38;;;17.00;;
58137;SDS011;43955;47.362;18.930;2024-03-06T04:07:23;39.90;;;17.83;;
58137;SDS011;43955;47.362;18.930;2024-03-06T04:09:50;41.00;;;17.73;;
58137;SDS011;43955;47.362;18.930;2024-03-06T04:12:18;41.92;;;17.40;;
58137;SDS011;43955;47.362;18.930;2024-03-06T04:14:47;50.08;;;19.85;;
58137;SDS011;43955;47.362;18.930;2024-03-06T04:17:14;42.40;;;17.55;;
58137;SDS011;43955;47.362;18.930;2024-03-06T04:19:42;45.38;;;17.80;;
58137;SDS011;43955;47.362;18.930;2024-03-06T04:22:10;47.90;;;19.50;;
58137;SDS011;43955;47.362;18.930;2024-03-06T04:24:40;44.35;;;17.92;;
58137;SDS011;43955;47.362;18.930;2024-03-06T04:27:08;46.83;;;18.75;;
58137;SDS011;43955;47.362;18.930;2024-03-06T04:29:36;38.95;;;17.90;;
58137;SDS011;43955;47.362;18.930;2024-03-06T04:32:03;45.78;;;18.42;;
58137;SDS011;43955;47.362;18.930;2024-03-06T04:34:31;44.05;;;18.65;;
58137;SDS011;43955;47.362;18.930;2024-03-06T04:37:00;38.45;;;17.23;;
58137;SDS011;43955;47.362;18.930;2024-03-06T04:39:28;50.05;;;20.48;;
58137;SDS011;43955;47.362;18.930;2024-03-06T04:41:56;42.97;;;17.05;;
58137;SDS011;43955;47.362;18.930;2024-03-06T04:44:23;43.63;;;19.20;;
58137;SDS011;43955;47.362;18.930;2024-03-06T04:46:51;44.40;;;18.55;;
58137;SDS011;43955;47.362;18.930;2024-03-06T04:49:19;40.40;;;17.95;;
58137;SDS011;43955;47.362;18.930;2024-03-06T04:51:46;49.83;;;21.33;;
58137;SDS011;43955;47.362;18.930;2024-03-06T04:54:14;45.78;;;19.48;;
58137;SDS011;43955;47.362;18.930;2024-03-06T04:56:42;45.67;;;19.65;;
58137;SDS011;43955;47.362;18.930;2024-03-06T04:59:10;45.42;;;19.45;;
58137;SDS011;43955;47.362;18.930;2024-03-06T05:01:39;58.80;;;19.80;;
58137;SDS011;43955;47.362;18.930;2024-03-06T05:04:08;47.90;;;21.90;;
58137;SDS011;43955;47.362;18.930;2024-03-06T05:06:56;51.30;;;22.58;;
58137;SDS011;43955;47.362;18.930;2024-03-06T05:09:41;52.47;;;23.30;;
58137;SDS011;43955;47.362;18.930;2024-03-06T05:12:27;53.83;;;25.70;;
58137;SDS011;43955;47.362;18.930;2024-03-06T05:15:13;63.20;;;27.80;;
58137;SDS011;43955;47.362;18.930;2024-03-06T05:20:43;38.80;;;17.65;;
58137;SDS011;43955;47.362;18.930;2024-03-06T05:23:27;39.30;;;17.45;;
58137;SDS011;43955;47.362;18.930;2024-03-06T05:26:12;42.40;;;20.45;;
58137;SDS011;43955;47.362;18.930;2024-03-06T05:28:58;41.40;;;17.10;;
58137;SDS011;43955;47.362;18.930;2024-03-06T05:31:43;43.35;;;17.77;;
58137;SDS011;43955;47.362;18.930;2024-03-06T05:34:28;51.88;;;18.42;;
58137;SDS011;43955;47.362;18.930;2024-03-06T05:37:14;47.10;;;19.98;;
58137;SDS011;43955;47.362;18.930;2024-03-06T05:39:58;55.80;;;27.65;;
58137;SDS011;43955;47.362;18.930;2024-03-06T05:42:43;48.83;;;20.80;;
58137;SDS011;43955;47.362;18.930;2024-03-06T05:45:28;36.38;;;20.30;;
58137;SDS011;43955;47.362;18.930;2024-03-06T05:48:13;33.47;;;17.85;;
58137;SDS011;43955;47.362;18.930;2024-03-06T05:50:59;35.22;;;17.83;;
58137;SDS011;43955;47.362;18.930;2024-03-06T05:53:44;41.75;;;19.30;;
58137;SDS011;43955;47.362;18.930;2024-03-06T05:56:29;38.30;;;21.95;;
58137;SDS011;43955;47.362;18.930;2024-03-06T05:59:15;37.90;;;23.17;;
58137;SDS011;43955;47.362;18.930;2024-03-06T06:01:42;36.53;;;18.45;;
58137;SDS011;43955;47.362;18.930;2024-03-06T06:04:12;38.65;;;17.87;;
58137;SDS011;43955;47.362;18.930;2024-03-06T06:06:40;38.00;;;18.87;;
58137;SDS011;43955;47.362;18.930;2024-03-06T06:09:08;42.55;;;21.67;;
58137;SDS011;43955;47.362;18.930;2024-03-06T06:14:10;41.85;;;20.52;;
58137;SDS011;43955;47.362;18.930;2024-03-06T06:16:38;45.28;;;19.98;;
58137;SDS011;43955;47.362;18.930;2024-03-06T06:19:07;59.17;;;22.02;;
58137;SDS011;43955;47.362;18.930;2024-03-06T06:21:35;51.13;;;22.60;;
58137;SDS011;43955;47.362;18.930;2024-03-06T06:24:03;52.08;;;21.08;;
58137;SDS011;43955;47.362;18.930;2024-03-06T06:26:31;46.72;;;19.17;;
58137;SDS011;43955;47.362;18.930;2024-03-06T06:28:59;70.62;;;19.48;;
58137;SDS011;43955;47.362;18.930;2024-03-06T06:31:26;74.80;;;21.12;;
58137;SDS011;43955;47.362;18.930;2024-03-06T06:33:54;61.90;;;20.58;;
58137;SDS011;43955;47.362;18.930;2024-03-06T06:36:22;89.28;;;21.55;;
58137;SDS011;43955;47.362;18.930;2024-03-06T06:38:49;57.38;;;18.60;;
58137;SDS011;43955;47.362;18.930;2024-03-06T06:41:17;52.53;;;18.20;;
58137;SDS011;43955;47.362;18.930;2024-03-06T06:46:53;39.10;;;19.25;;
58137;SDS011;43955;47.362;18.930;2024-03-06T06:49:20;45.75;;;16.87;;
58137;SDS011;43955;47.362;18.930;2024-03-06T06:51:48;39.90;;;17.65;;
58137;SDS011;43955;47.362;18.930;2024-03-06T06:54:16;42.70;;;17.52;;
58137;SDS011;43955;47.362;18.930;2024-03-06T06:56:45;43.92;;;17.92;;
58137;SDS011;43955;47.362;18.930;2024-03-06T06:59:13;37.55;;;17.55;;
58137;SDS011;43955;47.362;18.930;2024-03-06T07:01:41;41.90;;;18.98;;
58137;SDS011;43955;47.362;18.930;2024-03-06T07:04:08;40.53;;;18.40;;
58137;SDS011;43955;47.362;18.930;2024-03-06T07:06:37;37.40;;;18.30;;
58137;SDS011;43955;47.362;18.930;2024-03-06T07:09:05;63.42;;;22.30;;
58137;SDS011;43955;47.362;18.930;2024-03-06T07:11:32;50.28;;;20.40;;
58137;SDS011;43955;47.362;18.930;2024-03-06T07:14:00;78.97;;;21.30;;
58137;SDS011;43955;47.362;18.930;2024-03-06T07:16:30;43.30;;;18.75;;
58137;SDS011;43955;47.362;18.930;2024-03-06T07:18:59;42.45;;;18.83;;
58137;SDS011;43955;47.362;18.930;2024-03-06T07:21:27;67.90;;;19.87;;
58137;SDS011;43955;47.362;18.930;2024-03-06T07:23:56;43.33;;;20.25;;
58137;SDS011;43955;47.362;18.930;2024-03-06T07:26:26;54.67;;;19.83;;
58137;SDS011;43955;47.362;18.930;2024-03-06T07:28:56;73.75;;;24.05;;
58137;SDS011;43955;47.362;18.930;2024-03-06T07:31:25;43.95;;;19.00;;
58137;SDS011;43955;47.362;18.930;2024-03-06T07:33:53;44.63;;;20.33;;
58137;SDS011;43955;47.362;18.930;2024-03-06T07:36:21;38.13;;;18.40;;
58137;SDS011;43955;47.362;18.930;2024-03-06T07:38:49;41.83;;;18.25;;
58137;SDS011;43955;47.362;18.930;2024-03-06T07:41:16;39.05;;;17.92;;
58137;SDS011;43955;47.362;18.930;2024-03-06T07:43:44;34.30;;;15.95;;
58137;SDS011;43955;47.362;18.930;2024-03-06T07:46:12;38.05;;;17.58;;
58137;SDS011;43955;47.362;18.930;2024-03-06T07:48:43;35.42;;;17.23;;
58137;SDS011;43955;47.362;18.930;2024-03-06T07:51:15;39.50;;;16.45;;
58137;SDS011;43955;47.362;18.930;2024-03-06T07:53:42;32.00;;;17.02;;
58137;SDS011;43955;47.362;18.930;2024-03-06T07:56:10;37.20;;;17.20;;
58137;SDS011;43955;47.362;18.930;2024-03-06T07:58:39;32.90;;;16.37;;
58137;SDS011;43955;47.362;18.930;2024-03-06T08:01:08;44.15;;;16.10;;
58137;SDS011;43955;47.362;18.930;2024-03-06T08:03:36;36.85;;;17.30;;
58137;SDS011;43955;47.362;18.930;2024-03-06T08:06:06;31.80;;;15.38;;
58137;SDS011;43955;47.362;18.930;2024-03-06T08:08:39;37.25;;;17.10;;
58137;SDS011;43955;47.362;18.930;2024-03-06T08:11:07;30.83;;;16.48;;
58137;SDS011;43955;47.362;18.930;2024-03-06T08:13:40;37.75;;;17.35;;
58137;SDS011;43955;47.362;18.930;2024-03-06T08:16:09;35.78;;;16.92;;
58137;SDS011;43955;47.362;18.930;2024-03-06T08:18:37;33.58;;;16.33;;
58137;SDS011;43955;47.362;18.930;2024-03-06T08:21:04;38.42;;;16.17;;
58137;SDS011;43955;47.362;18.930;2024-03-06T08:23:33;38.13;;;16.15;;
58137;SDS011;43955;47.362;18.930;2024-03-06T08:26:01;53.67;;;18.48;;
58137;SDS011;43955;47.362;18.930;2024-03-06T08:28:29;108.05;;;23.33;;
58137;SDS011;43955;47.362;18.930;2024-03-06T08:30:56;38.58;;;16.98;;
58137;SDS011;43955;47.362;18.930;2024-03-06T08:33:24;30.83;;;16.27;;
58137;SDS011;43955;47.362;18.930;2024-03-06T08:35:52;42.28;;;18.45;;
58137;SDS011;43955;47.362;18.930;2024-03-06T08:38:24;71.22;;;18.58;;
58137;SDS011;43955;47.362;18.930;2024-03-06T08:40:52;25.92;;;14.07;;
58137;SDS011;43955;47.362;18.930;2024-03-06T08:43:19;26.15;;;14.57;;
58137;SDS011;43955;47.362;18.930;2024-03-06T08:45:47;25.70;;;13.40;;
58137;SDS011;43955;47.362;18.930;2024-03-06T08:48:14;26.12;;;13.98;;
58137;SDS011;43955;47.362;18.930;2024-03-06T08:50:41;33.08;;;15.55;;
58137;SDS011;43955;47.362;18.930;2024-03-06T08:53:08;29.48;;;15.55;;
58137;SDS011;43955;47.362;18.930;2024-03-06T08:55:37;32.20;;;14.93;;
58137;SDS011;43955;47.362;18.930;2024-03-06T08:58:05;29.20;;;13.77;;
58137;SDS011;43955;47.362;18.930;2024-03-06T09:00:32;30.05;;;15.15;;
58137;SDS011;43955;47.362;18.930;2024-03-06T09:03:01;32.30;;;14.82;;
58137;SDS011;43955;47.362;18.930;2024-03-06T09:05:28;27.52;;;14.68;;
58137;SDS011;43955;47.362;18.930;2024-03-06T09:07:56;33.00;;;14.68;;
58137;SDS011;43955;47.362;18.930;2024-03-06T09:10:28;27.92;;;15.60;;
58137;SDS011;43955;47.362;18.930;2024-03-06T09:12:55;27.00;;;14.98;;
58137;SDS011;43955;47.362;18.930;2024-03-06T09:15:22;30.52;;;14.68;;
58137;SDS011;43955;47.362;18.930;2024-03-06T09:17:51;26.60;;;13.80;;
58137;SDS011;43955;47.362;18.930;2024-03-06T09:20:18;26.08;;;14.35;;
58137;SDS011;43955;47.362;18.930;2024-03-06T09:22:45;25.62;;;13.80;;
58137;SDS011;43955;47.362;18.930;2024-03-06T09:25:13;32.63;;;14.48;;
58137;SDS011;43955;47.362;18.930;2024-03-06T09:27:43;24.17;;;13.95;;
58137;SDS011;43955;47.362;18.930;2024-03-06T09:30:10;20.98;;;11.30;;
58137;SDS011;43955;47.362;18.930;2024-03-06T09:32:39;21.98;;;11.32;;
58137;SDS011;43955;47.362;18.930;2024-03-06T09:35:07;25.70;;;12.77;;
58137;SDS011;43955;47.362;18.930;2024-03-06T09:37:34;38.35;;;12.95;;
58137;SDS011;43955;47.362;18.930;2024-03-06T09:40:01;26.15;;;11.38;;
58137;SDS011;43955;47.362;18.930;2024-03-06T09:42:30;24.08;;;11.60;;
58137;SDS011;43955;47.362;18.930;2024-03-06T09:44:57;21.52;;;11.23;;
58137;SDS011;43955;47.362;18.930;2024-03-06T09:47:24;21.00;;;12.32;;
58137;SDS011;43955;47.362;18.930;2024-03-06T09:49:53;22.52;;;11.70;;
58137;SDS011;43955;47.362;18.930;2024-03-06T09:52:22;21.90;;;11.15;;
58137;SDS011;43955;47.362;18.930;2024-03-06T09:54:55;21.30;;;11.65;;
58137;SDS011;43955;47.362;18.930;2024-03-06T09:57:23;25.40;;;11.25;;
58137;SDS011;43955;47.362;18.930;2024-03-06T09:59:51;28.02;;;11.98;;
58137;SDS011;43955;47.362;18.930;2024-03-06T10:02:30;20.02;;;11.82;;
58137;SDS011;43955;47.362;18.930;2024-03-06T10:05:02;17.67;;;10.25;;
58137;SDS011;43955;47.362;18.930;2024-03-06T10:07:31;29.33;;;10.38;;
58137;SDS011;43955;47.362;18.930;2024-03-06T10:09:58;23.98;;;11.20;;
58137;SDS011;43955;47.362;18.930;2024-03-06T10:12:26;26.42;;;11.18;;
58137;SDS011;43955;47.362;18.930;2024-03-06T10:14:56;23.65;;;10.63;;
58137;SDS011;43955;47.362;18.930;2024-03-06T10:17:25;26.05;;;11.00;;
58137;SDS011;43955;47.362;18.930;2024-03-06T10:19:55;21.12;;;11.57;;
58137;SDS011;43955;47.362;18.930;2024-03-06T10:22:24;19.20;;;10.90;;
58137;SDS011;43955;47.362;18.930;2024-03-06T10:24:55;21.17;;;11.18;;
58137;SDS011;43955;47.362;18.930;2024-03-06T10:27:25;23.75;;;11.50;;
58137;SDS011;43955;47.362;18.930;2024-03-06T10:30:03;18.80;;;10.48;;
58137;SDS011;43955;47.362;18.930;2024-03-06T10:32:33;19.92;;;11.15;;
58137;SDS011;43955;47.362;18.930;2024-03-06T10:35:01;19.20;;;10.32;;
58137;SDS011;43955;47.362;18.930;2024-03-06T10:37:30;22.20;;;10.93;;
58137;SDS011;43955;47.362;18.930;2024-03-06T10:39:58;18.20;;;10.80;;
58137;SDS011;43955;47.362;18.930;2024-03-06T10:42:32;20.83;;;11.05;;
58137;SDS011;43955;47.362;18.930;2024-03-06T10:45:00;18.98;;;10.18;;
58137;SDS011;43955;47.362;18.930;2024-03-06T10:47:28;18.42;;;9.90;;
58137;SDS011;43955;47.362;18.930;2024-03-06T10:49:57;17.87;;;9.57;;
58137;SDS011;43955;47.362;18.930;2024-03-06T10:52:27;17.40;;;10.90;;
58137;SDS011;43955;47.362;18.930;2024-03-06T10:54:55;16.73;;;9.88;;
58137;SDS011;43955;47.362;18.930;2024-03-06T10:57:24;18.52;;;10.10;;
58137;SDS011;43955;47.362;18.930;2024-03-06T10:59:52;19.55;;;9.73;;
58137;SDS011;43955;47.362;18.930;2024-03-06T11:02:20;23.08;;;9.40;;
58137;SDS011;43955;47.362;18.930;2024-03-06T11:04:50;18.95;;;9.95;;
58137;SDS011;43955;47.362;18.930;2024-03-06T11:07:18;19.00;;;10.63;;
58137;SDS011;43955;47.362;18.930;2024-03-06T11:09:46;17.87;;;10.18;;
58137;SDS011;43955;47.362;18.930;2024-03-06T11:12:36;19.23;;;9.73;;
58137;SDS011;43955;47.362;18.930;2024-03-06T11:15:09;29.60;;;10.98;;
58137;SDS011;43955;47.362;18.930;2024-03-06T11:17:37;14.68;;;9.35;;
58137;SDS011;43955;47.362;18.930;2024-03-06T11:23:07;19.83;;;9.18;;
58137;SDS011;43955;47.362;18.930;2024-03-06T11:28:18;24.35;;;9.40;;
58137;SDS011;43955;47.362;18.930;2024-03-06T11:30:48;20.30;;;8.50;;
58137;SDS011;43955;47.362;18.930;2024-03-06T11:33:23;18.55;;;9.63;;
58137;SDS011;43955;47.362;18.930;2024-03-06T11:38:46;16.73;;;8.13;;
58137;SDS011;43955;47.362;18.930;2024-03-06T11:41:24;16.45;;;9.98;;
58137;SDS011;43955;47.362;18.930;2024-03-06T11:43:54;15.70;;;8.05;;
58137;SDS011;43955;47.362;18.930;2024-03-06T11:46:23;17.23;;;8.70;;
58137;SDS011;43955;47.362;18.930;2024-03-06T11:49:19;13.85;;;7.75;;
58137;SDS011;43955;47.362;18.930;2024-03-06T11:51:53;20.73;;;8.88;;
58137;SDS011;43955;47.362;18.930;2024-03-06T11:54:24;41.25;;;10.30;;
58137;SDS011;43955;47.362;18.930;2024-03-06T11:56:56;24.83;;;9.57;;
58137;SDS011;43955;47.362;18.930;2024-03-06T11:59:31;22.73;;;8.10;;
58137;SDS011;43955;47.362;18.930;2024-03-06T12:02:00;12.82;;;7.90;;
58137;SDS011;43955;47.362;18.930;2024-03-06T12:04:30;14.38;;;7.55;;
58137;SDS011;43955;47.362;18.930;2024-03-06T12:06:57;22.23;;;8.57;;
58137;SDS011;43955;47.362;18.930;2024-03-06T12:09:36;72.35;;;11.43;;
58137;SDS011;43955;47.362;18.930;2024-03-06T12:12:09;19.42;;;9.30;;
58137;SDS011;43955;47.362;18.930;2024-03-06T12:14:38;17.02;;;9.13;;
58137;SDS011;43955;47.362;18.930;2024-03-06T12:17:12;16.58;;;9.10;;
58137;SDS011;43955;47.362;18.930;2024-03-06T12:19:43;19.58;;;9.05;;
58137;SDS011;43955;47.362;18.930;2024-03-06T12:22:13;22.62;;;10.45;;
58137;SDS011;43955;47.362;18.930;2024-03-06T12:24:46;17.65;;;10.05;;
58137;SDS011;43955;47.362;18.930;2024-03-06T12:27:13;16.17;;;9.32;;
58137;SDS011;43955;47.362;18.930;2024-03-06T12:29:40;39.08;;;11.32;;
58137;SDS011;43955;47.362;18.930;2024-03-06T12:32:16;17.00;;;9.15;;
58137;SDS011;43955;47.362;18.930;2024-03-06T12:34:55;15.45;;;8.20;;
58137;SDS011;43955;47.362;18.930;2024-03-06T12:37:28;15.05;;;8.57;;
58137;SDS011;43955;47.362;18.930;2024-03-06T12:40:02;21.23;;;9.23;;
58137;SDS011;43955;47.362;18.930;2024-03-06T12:42:31;14.90;;;7.97;;
58137;SDS011;43955;47.362;18.930;2024-03-06T12:44:59;18.67;;;8.90;;
58137;SDS011;43955;47.362;18.930;2024-03-06T12:47:26;15.85;;;8.95;;
58137;SDS011;43955;47.362;18.930;2024-03-06T12:49:54;20.45;;;9.15;;
58137;SDS011;43955;47.362;18.930;2024-03-06T12:52:21;18.42;;;8.68;;
58137;SDS011;43955;47.362;18.930;2024-03-06T12:54:49;17.08;;;8.70;;
58137;SDS011;43955;47.362;18.930;2024-03-06T12:57:16;15.30;;;8.55;;
58137;SDS011;43955;47.362;18.930;2024-03-06T12:59:44;17.33;;;8.50;;
58137;SDS011;43955;47.362;18.930;2024-03-06T13:02:11;16.55;;;9.07;;
58137;SDS011;43955;47.362;18.930;2024-03-06T13:04:39;18.92;;;8.73;;
58137;SDS011;43955;47.362;18.930;2024-03-06T13:07:06;16.50;;;7.93;;
58137;SDS011;43955;47.362;18.930;2024-03-06T13:09:33;33.22;;;9.52;;
58137;SDS011;43955;47.362;18.930;2024-03-06T13:12:00;24.33;;;8.25;;
58137;SDS011;43955;47.362;18.930;2024-03-06T13:14:29;27.95;;;8.38;;
58137;SDS011;43955;47.362;18.930;2024-03-06T13:16:57;37.13;;;9.70;;
58137;SDS011;43955;47.362;18.930;2024-03-06T13:19:25;12.07;;;7.32;;
58137;SDS011;43955;47.362;18.930;2024-03-06T13:21:52;17.05;;;7.82;;
58137;SDS011;43955;47.362;18.930;2024-03-06T13:24:19;17.02;;;7.80;;
58137;SDS011;43955;47.362;18.930;2024-03-06T13:26:47;15.95;;;7.95;;
58137;SDS011;43955;47.362;18.930;2024-03-06T13:29:14;15.88;;;8.23;;
58137;SDS011;43955;47.362;18.930;2024-03-06T13:31:41;12.20;;;8.25;;
58137;SDS011;43955;47.362;18.930;2024-03-06T13:34:08;27.35;;;8.70;;
58137;SDS011;43955;47.362;18.930;2024-03-06T13:36:35;18.30;;;9.40;;
58137;SDS011;43955;47.362;18.930;2024-03-06T13:39:02;15.10;;;8.35;;
58137;SDS011;43955;47.362;18.930;2024-03-06T13:41:30;17.35;;;8.27;;
58137;SDS011;43955;47.362;18.930;2024-03-06T13:43:58;17.12;;;8.68;;
58137;SDS011;43955;47.362;18.930;2024-03-06T13:46:25;31.83;;;9.63;;
58137;SDS011;43955;47.362;18.930;2024-03-06T13:48:58;15.77;;;8.50;;
58137;SDS011;43955;47.362;18.930;2024-03-06T13:51:25;19.42;;;10.65;;
58137;SDS011;43955;47.362;18.930;2024-03-06T13:53:52;21.23;;;10.20;;
58137;SDS011;43955;47.362;18.930;2024-03-06T13:56:19;17.83;;;9.85;;
58137;SDS011;43955;47.362;18.930;2024-03-06T13:58:46;16.62;;;9.07;;
58137;SDS011;43955;47.362;18.930;2024-03-06T14:01:14;20.95;;;10.70;;
58137;SDS011;43955;47.362;18.930;2024-03-06T14:03:43;50.40;;;10.85;;
58137;SDS011;43955;47.362;18.930;2024-03-06T14:06:10;17.08;;;9.15;;
58137;SDS011;43955;47.362;18.930;2024-03-06T14:08:37;20.15;;;9.98;;
58137;SDS011;43955;47.362;18.930;2024-03-06T14:11:06;29.23;;;11.45;;
58137;SDS011;43955;47.362;18.930;2024-03-06T14:13:34;98.95;;;18.20;;
58137;SDS011;43955;47.362;18.930;2024-03-06T14:16:01;24.33;;;10.20;;
58137;SDS011;43955;47.362;18.930;2024-03-06T14:18:28;21.02;;;10.18;;
58137;SDS011;43955;47.362;18.930;2024-03-06T14:20:55;25.30;;;10.88;;
58137;SDS011;43955;47.362;18.930;2024-03-06T14:23:23;22.02;;;10.77;;
58137;SDS011;43955;47.362;18.930;2024-03-06T14:25:53;26.45;;;12.43;;
58137;SDS011;43955;47.362;18.930;2024-03-06T14:28:21;23.77;;;12.05;;
58137;SDS011;43955;47.362;18.930;2024-03-06T14:30:48;28.35;;;12.45;;
58137;SDS011;43955;47.362;18.930;2024-03-06T14:33:16;24.58;;;12.30;;
58137;SDS011;43955;47.362;18.930;2024-03-06T14:35:43;25.42;;;13.20;;
58137;SDS011;43955;47.362;18.930;2024-03-06T14:38:12;24.27;;;12.13;;
58137;SDS011;43955;47.362;18.930;2024-03-06T14:40:40;31.42;;;13.10;;